createdAt,value
2022-08-03T00:00:26.573Z,20.50
2022-08-03T00:02:53.644Z,20.50
2022-08-03T00:05:20.535Z,20.60
2022-08-03T00:07:48.435Z,20.50
2022-08-03T00:10:16.424Z,20.40
2022-08-03T00:12:43.115Z,20.40
2022-08-03T00:15:11.505Z,20.40
2022-08-03T00:17:53.587Z,20.30
2022-08-03T00:20:23.880Z,20.60
2022-08-03T00:22:50.605Z,20.60
2022-08-03T00:25:17.344Z,20.70
2022-08-03T00:27:44.026Z,20.80
2022-08-03T00:30:10.861Z,20.70
2022-08-03T00:32:38.858Z,20.80
2022-08-03T00:35:18.283Z,20.80
2022-08-03T00:37:58.803Z,20.60
2022-08-03T00:40:25.563Z,20.70
2022-08-03T00:42:53.625Z,20.40
2022-08-03T00:45:21.137Z,20.30
2022-08-03T00:47:47.906Z,20.30
2022-08-03T00:50:14.632Z,20.20
2022-08-03T00:52:41.411Z,20.10
2022-08-03T00:55:08.329Z,20.20
2022-08-03T00:57:35.069Z,20.20
2022-08-03T01:00:01.834Z,20.30
2022-08-03T01:02:28.773Z,20.40
2022-08-03T01:04:55.886Z,20.30
2022-08-03T01:07:22.591Z,20.20
2022-08-03T01:10:04.649Z,20.20
2022-08-03T01:12:39.009Z,20.10
2022-08-03T01:15:08.871Z,20.30
2022-08-03T01:17:44.906Z,20.20
2022-08-03T01:20:14.658Z,20.00
2022-08-03T01:23:00.162Z,20.10
2022-08-03T01:25:45.473Z,20.10
2022-08-03T01:28:14.916Z,20.10
2022-08-03T01:30:41.640Z,20.20
2022-08-03T01:33:22.163Z,20.00
2022-08-03T01:35:51.308Z,20.00
2022-08-03T01:38:24.820Z,19.90
2022-08-03T01:40:54.004Z,19.90
2022-08-03T01:43:58.996Z,19.80
2022-08-03T01:46:08.235Z,19.70
2022-08-03T01:48:36.309Z,19.70
2022-08-03T01:51:03.046Z,19.90
2022-08-03T01:53:29.938Z,19.90
2022-08-03T01:55:56.766Z,20.00
2022-08-03T01:58:23.493Z,20.10
2022-08-03T02:00:50.345Z,20.00
2022-08-03T02:03:17.084Z,20.20
2022-08-03T02:05:44.546Z,20.10
2022-08-03T02:08:12.162Z,20.10
2022-08-03T02:10:38.891Z,20.00
2022-08-03T02:13:06.140Z,20.00
2022-08-03T02:15:32.860Z,20.00
2022-08-03T02:18:01.787Z,20.00
2022-08-03T02:20:28.506Z,20.00
2022-08-03T02:22:55.398Z,20.10
2022-08-03T02:25:22.171Z,20.30
2022-08-03T02:27:51.027Z,20.20
2022-08-03T02:30:17.727Z,20.00
2022-08-03T02:32:44.755Z,20.10
2022-08-03T02:35:12.108Z,20.10
2022-08-03T02:37:42.901Z,20.00
2022-08-03T02:40:12.098Z,20.10
2022-08-03T02:42:38.795Z,20.00
2022-08-03T02:45:06.088Z,20.00
2022-08-03T02:47:54.580Z,19.90
2022-08-03T02:50:19.659Z,19.60
2022-08-03T02:52:46.429Z,19.40
2022-08-03T02:55:13.153Z,19.40
2022-08-03T02:57:39.875Z,19.30
2022-08-03T03:00:06.967Z,19.50
2022-08-03T03:02:33.813Z,19.40
2022-08-03T03:05:52.602Z,19.40
2022-08-03T03:07:51.883Z,19.50
2022-08-03T03:10:20.688Z,19.50
2022-08-03T03:12:47.449Z,19.50
2022-08-03T03:15:14.151Z,19.60
2022-08-03T03:17:40.863Z,19.50
2022-08-03T03:20:08.089Z,19.50
2022-08-03T03:22:34.841Z,19.50
2022-08-03T03:25:01.607Z,19.40
2022-08-03T03:27:28.361Z,19.50
2022-08-03T03:29:57.154Z,19.40
2022-08-03T03:32:24.363Z,19.50
2022-08-03T03:34:51.083Z,19.40
2022-08-03T03:37:17.936Z,19.40
2022-08-03T03:39:44.680Z,19.20
2022-08-03T03:42:11.416Z,19.10
2022-08-03T03:44:38.114Z,19.20
2022-08-03T03:47:04.837Z,19.20
2022-08-03T03:49:32.021Z,19.20
2022-08-03T03:51:58.785Z,19.10
2022-08-03T03:54:29.114Z,18.90
2022-08-03T03:56:56.313Z,19.10
2022-08-03T03:59:23.056Z,19.30
2022-08-03T04:01:59.144Z,19.10
2022-08-03T04:04:44.833Z,19.20
2022-08-03T04:07:30.223Z,19.00
2022-08-03T04:10:15.567Z,18.90
2022-08-03T04:12:50.583Z,19.00
2022-08-03T04:15:18.872Z,19.00
2022-08-03T04:17:45.586Z,19.20
2022-08-03T04:20:12.283Z,19.10
2022-08-03T04:22:39.746Z,19.00
2022-08-03T04:25:08.378Z,19.10
2022-08-03T04:27:36.587Z,19.20
2022-08-03T04:30:04.614Z,19.30
2022-08-03T04:32:31.391Z,19.40
2022-08-03T04:34:58.131Z,19.30
2022-08-03T04:37:27.367Z,19.30
2022-08-03T04:39:54.082Z,19.40
2022-08-03T04:42:24.378Z,19.20
2022-08-03T04:44:51.194Z,19.20
2022-08-03T04:47:17.966Z,19.20
2022-08-03T04:49:44.691Z,19.40
2022-08-03T04:52:11.441Z,19.30
2022-08-03T04:54:48.761Z,19.40
2022-08-03T04:57:22.081Z,19.50
2022-08-03T04:59:54.766Z,19.60
2022-08-03T05:02:24.817Z,19.70
2022-08-03T05:04:52.234Z,19.70
2022-08-03T05:07:24.122Z,19.70
2022-08-03T05:09:52.727Z,19.80
2022-08-03T05:12:25.295Z,19.90
2022-08-03T05:14:53.224Z,20.20
2022-08-03T05:17:19.957Z,20.00
2022-08-03T05:19:46.642Z,20.10
2022-08-03T05:22:13.440Z,20.20
2022-08-03T05:24:40.230Z,20.40
2022-08-03T05:27:06.923Z,20.40
2022-08-03T05:29:33.636Z,20.70
2022-08-03T05:32:07.720Z,20.60
2022-08-03T05:34:35.058Z,20.70
2022-08-03T05:37:01.859Z,20.70
2022-08-03T05:39:28.598Z,20.90
2022-08-03T05:41:55.321Z,21.20
2022-08-03T05:44:22.200Z,21.30
2022-08-03T05:46:48.934Z,21.40
2022-08-03T05:49:15.671Z,21.60
2022-08-03T05:51:42.928Z,21.90
2022-08-03T05:54:09.634Z,21.90
2022-08-03T05:56:36.333Z,22.00
2022-08-03T05:59:22.425Z,22.00
2022-08-03T06:01:50.609Z,22.40
2022-08-03T06:04:17.388Z,22.60
2022-08-03T06:06:44.092Z,22.50
2022-08-03T06:09:10.841Z,22.70
2022-08-03T06:11:37.656Z,22.50
2022-08-03T06:14:04.373Z,22.50
2022-08-03T06:16:31.329Z,22.60
2022-08-03T06:18:58.072Z,22.70
2022-08-03T06:21:24.789Z,23.00
2022-08-03T06:23:55.619Z,23.00
2022-08-03T06:26:23.494Z,23.30
2022-08-03T06:28:52.690Z,23.50
2022-08-03T06:31:21.742Z,23.30
2022-08-03T06:34:32.576Z,23.40
2022-08-03T06:36:35.205Z,23.60
2022-08-03T06:39:01.967Z,23.80
2022-08-03T06:41:28.859Z,24.00
2022-08-03T06:43:55.561Z,24.00
2022-08-03T06:46:30.785Z,24.20
2022-08-03T06:48:57.709Z,24.40
2022-08-03T06:52:04.222Z,24.40
2022-08-03T06:54:12.360Z,24.50
2022-08-03T06:56:39.186Z,24.50
2022-08-03T06:59:05.971Z,24.70
2022-08-03T07:01:32.748Z,24.90
2022-08-03T07:04:00.591Z,25.20
2022-08-03T07:06:27.377Z,25.20
2022-08-03T07:08:58.963Z,25.70
2022-08-03T07:11:26.283Z,25.50
2022-08-03T07:13:53.084Z,25.50
2022-08-03T07:16:20.131Z,25.90
2022-08-03T07:18:46.830Z,25.60
2022-08-03T07:21:13.708Z,26.00
2022-08-03T07:23:40.542Z,25.60
2022-08-03T07:26:07.303Z,25.70
2022-08-03T07:28:34.135Z,25.70
2022-08-03T07:31:00.868Z,25.90
2022-08-03T07:33:27.620Z,26.20
2022-08-03T07:35:54.539Z,26.60
2022-08-03T07:38:21.397Z,27.00
2022-08-03T07:40:48.222Z,27.20
2022-08-03T07:43:14.945Z,27.50
2022-08-03T07:45:41.689Z,28.00
2022-08-03T07:48:12.099Z,28.00
2022-08-03T07:50:39.193Z,28.20
2022-08-03T07:53:05.911Z,27.60
2022-08-03T07:55:32.813Z,28.20
2022-08-03T07:58:09.952Z,28.20
2022-08-03T08:00:36.844Z,28.20
2022-08-03T08:03:03.882Z,28.00
2022-08-03T08:05:30.668Z,28.00
2022-08-03T08:07:57.420Z,28.30
2022-08-03T08:10:24.197Z,28.10
2022-08-03T08:12:51.005Z,28.40
2022-08-03T08:15:17.808Z,28.70
2022-08-03T08:17:48.488Z,28.80
2022-08-03T08:20:27.644Z,28.50
2022-08-03T08:23:09.603Z,28.90
2022-08-03T08:25:51.682Z,29.30
2022-08-03T08:28:29.875Z,29.60
2022-08-03T08:30:59.860Z,29.20
2022-08-03T08:33:37.287Z,29.30
2022-08-03T08:36:15.382Z,29.00
2022-08-03T08:38:44.615Z,29.00
2022-08-03T08:41:11.598Z,28.90
2022-08-03T08:43:38.362Z,29.20
2022-08-03T08:46:05.613Z,29.50
2022-08-03T08:48:32.335Z,29.30
2022-08-03T08:50:59.083Z,29.30
2022-08-03T08:53:29.094Z,29.20
2022-08-03T08:56:00.287Z,29.20
2022-08-03T08:58:29.295Z,29.30
2022-08-03T09:00:56.052Z,29.80
2022-08-03T09:03:30.291Z,29.70
2022-08-03T09:05:58.932Z,29.90
2022-08-03T09:08:25.857Z,29.70
2022-08-03T09:10:52.552Z,29.80
2022-08-03T09:13:19.295Z,29.80
2022-08-03T09:16:01.274Z,30.30
2022-08-03T09:18:30.529Z,30.60
2022-08-03T09:21:31.152Z,30.80
2022-08-03T09:24:04.262Z,31.20
2022-08-03T09:26:32.032Z,31.20
2022-08-03T09:29:12.800Z,31.00
2022-08-03T09:31:43.358Z,30.70
2022-08-03T09:34:11.191Z,31.00
2022-08-03T09:36:38.978Z,31.30
2022-08-03T09:39:06.616Z,31.60
2022-08-03T09:41:33.624Z,31.90
2022-08-03T09:44:00.406Z,32.20
2022-08-03T09:46:31.727Z,32.10
2022-08-03T09:49:12.014Z,32.00
2022-08-03T09:52:32.259Z,32.50
2022-08-03T09:54:26.675Z,32.90
2022-08-03T09:56:53.505Z,33.40
2022-08-03T09:59:24.013Z,33.30
2022-08-03T10:01:50.724Z,32.90
2022-08-03T10:04:17.469Z,32.60
2022-08-03T10:06:45.368Z,32.70
2022-08-03T10:09:12.371Z,33.50
2022-08-03T10:11:42.088Z,33.50
2022-08-03T10:14:10.027Z,34.30
2022-08-03T10:16:37.508Z,34.20
2022-08-03T10:19:04.698Z,34.50
2022-08-03T10:21:35.039Z,34.70
2022-08-03T10:24:05.573Z,34.10
2022-08-03T10:26:36.084Z,34.30
2022-08-03T10:29:03.679Z,34.80
2022-08-03T10:31:57.425Z,34.40
2022-08-03T10:34:29.205Z,34.70
2022-08-03T10:36:57.236Z,34.50
2022-08-03T10:39:24.546Z,34.40
2022-08-03T10:41:51.364Z,34.10
2022-08-03T10:44:20.293Z,34.80
2022-08-03T10:46:47.322Z,35.10
2022-08-03T10:49:25.496Z,35.80
2022-08-03T10:52:01.769Z,36.30
2022-08-03T10:54:57.836Z,36.70
2022-08-03T10:57:43.616Z,36.00
2022-08-03T11:00:14.097Z,35.70
2022-08-03T11:02:59.860Z,36.30
2022-08-03T11:05:27.631Z,36.60
2022-08-03T11:08:14.667Z,37.00
2022-08-03T11:10:41.604Z,37.00
2022-08-03T11:13:08.357Z,38.10
2022-08-03T11:15:35.931Z,37.50
2022-08-03T11:18:11.186Z,37.20
2022-08-03T11:20:57.507Z,37.70
2022-08-03T11:24:04.082Z,38.80
2022-08-03T11:26:30.167Z,40.30
2022-08-03T11:29:03.061Z,40.10
2022-08-03T11:31:49.183Z,40.50
2022-08-03T11:34:16.962Z,41.70
2022-08-03T11:37:02.422Z,42.40
2022-08-03T11:39:45.488Z,42.10
2022-08-03T11:42:24.356Z,42.00
2022-08-03T11:44:51.403Z,42.00
2022-08-03T11:47:18.449Z,41.70
2022-08-03T11:49:48.585Z,41.30
2022-08-03T11:52:16.270Z,41.80
2022-08-03T11:54:43.099Z,43.40
2022-08-03T11:57:09.903Z,43.10
2022-08-03T11:59:38.656Z,43.40
2022-08-03T12:02:12.501Z,43.50
2022-08-03T12:04:58.263Z,44.00
2022-08-03T12:08:03.535Z,44.30
2022-08-03T12:10:12.869Z,42.40
2022-08-03T12:12:44.509Z,41.90
2022-08-03T12:15:12.952Z,44.50
2022-08-03T12:17:40.433Z,42.50
2022-08-03T12:20:07.827Z,41.30
2022-08-03T12:22:35.129Z,39.70
2022-08-03T12:25:01.913Z,37.90
2022-08-03T12:27:31.295Z,37.00
2022-08-03T12:29:59.282Z,36.00
2022-08-03T12:32:26.628Z,35.10
2022-08-03T12:34:53.374Z,36.20
2022-08-03T12:37:23.719Z,39.10
2022-08-03T12:40:00.443Z,41.40
2022-08-03T12:42:34.900Z,43.50
2022-08-03T12:45:20.819Z,44.80
2022-08-03T12:47:54.244Z,44.90
2022-08-03T12:50:25.201Z,43.00
2022-08-03T12:52:51.946Z,43.80
2022-08-03T12:55:22.014Z,46.20
2022-08-03T12:57:48.790Z,47.10
2022-08-03T13:00:21.626Z,46.20
2022-08-03T13:05:53.999Z,46.50
2022-08-03T13:08:21.262Z,46.20
2022-08-03T13:10:47.967Z,45.90
2022-08-03T13:13:14.751Z,46.70
2022-08-03T13:15:47.541Z,46.90
2022-08-03T13:18:15.232Z,45.80
2022-08-03T13:20:44.148Z,45.60
2022-08-03T13:23:15.470Z,46.00
2022-08-03T13:25:55.237Z,46.30
2022-08-03T13:28:23.088Z,47.30
2022-08-03T13:30:49.805Z,46.70
2022-08-03T13:33:16.576Z,44.30
2022-08-03T13:35:43.305Z,42.80
2022-08-03T13:38:10.075Z,42.40
2022-08-03T13:40:41.455Z,44.50
2022-08-03T13:43:08.770Z,45.70
2022-08-03T13:45:35.523Z,46.80
2022-08-03T13:48:02.277Z,46.70
2022-08-03T13:50:30.093Z,44.70
2022-08-03T13:52:57.108Z,45.10
2022-08-03T13:55:23.862Z,45.60
2022-08-03T13:58:04.252Z,46.10
2022-08-03T14:00:33.641Z,45.70
2022-08-03T14:03:16.149Z,46.00
2022-08-03T14:05:43.217Z,45.70
2022-08-03T14:08:10.032Z,46.30
2022-08-03T14:10:37.293Z,45.90
2022-08-03T14:13:04.395Z,47.40
2022-08-03T14:15:31.293Z,47.70
2022-08-03T14:17:58.762Z,46.60
2022-08-03T14:20:38.745Z,45.90
2022-08-03T14:23:13.271Z,43.50
2022-08-03T14:25:51.789Z,41.70
2022-08-03T14:28:20.061Z,42.20
2022-08-03T14:30:47.896Z,43.60
2022-08-03T14:33:14.728Z,43.90
2022-08-03T14:35:41.458Z,43.50
2022-08-03T14:38:08.183Z,42.80
2022-08-03T14:40:34.955Z,42.60
2022-08-03T14:43:02.559Z,42.90
2022-08-03T14:45:29.389Z,42.50
2022-08-03T14:50:33.567Z,42.00
2022-08-03T14:50:48.386Z,40.20
2022-08-03T14:53:17.777Z,38.80
2022-08-03T14:55:50.419Z,37.30
2022-08-03T14:58:22.214Z,37.20
2022-08-03T15:00:49.558Z,36.80
2022-08-03T15:03:16.865Z,36.70
2022-08-03T15:05:44.102Z,36.60
2022-08-03T15:08:10.872Z,36.10
2022-08-03T15:10:43.718Z,35.80
2022-08-03T15:13:11.683Z,35.60
2022-08-03T15:15:38.428Z,35.40
2022-08-03T15:18:05.190Z,34.90
2022-08-03T15:20:43.344Z,34.80
2022-08-03T15:23:11.646Z,34.80
2022-08-03T15:26:27.866Z,35.40
2022-08-03T15:28:25.075Z,35.30
2022-08-03T15:30:52.057Z,35.50
2022-08-03T15:33:18.820Z,35.40
2022-08-03T15:35:47.313Z,35.40
2022-08-03T15:38:14.021Z,35.20
2022-08-03T15:40:40.965Z,35.20
2022-08-03T15:43:07.726Z,35.30
2022-08-03T15:45:36.189Z,35.40
2022-08-03T15:48:04.507Z,35.40
2022-08-03T15:50:31.407Z,35.50
2022-08-03T15:52:58.160Z,35.70
2022-08-03T15:55:24.879Z,35.60
2022-08-03T15:59:09.945Z,35.50
2022-08-03T16:00:38.651Z,35.20
2022-08-03T16:03:05.449Z,35.10
2022-08-03T16:05:32.264Z,34.90
2022-08-03T16:08:03.601Z,34.80
2022-08-03T16:10:31.843Z,34.70
2022-08-03T16:13:00.097Z,34.50
2022-08-03T16:15:27.132Z,34.40
2022-08-03T16:17:53.954Z,34.60
2022-08-03T16:20:31.711Z,34.90
2022-08-03T16:23:08.538Z,34.80
2022-08-03T16:25:41.691Z,34.80
2022-08-03T16:28:13.751Z,35.20
2022-08-03T16:30:41.673Z,35.50
2022-08-03T16:33:08.459Z,35.50
2022-08-03T16:35:35.172Z,35.20
2022-08-03T16:38:05.377Z,35.60
2022-08-03T16:40:34.835Z,36.20
2022-08-03T16:43:01.582Z,36.20
2022-08-03T16:45:28.751Z,35.90
2022-08-03T16:48:01.619Z,36.00
2022-08-03T16:50:32.649Z,36.40
2022-08-03T16:52:59.372Z,37.30
2022-08-03T16:55:51.758Z,37.10
2022-08-03T16:58:15.108Z,36.90
2022-08-03T17:00:43.208Z,36.10
2022-08-03T17:03:20.464Z,35.70
2022-08-03T17:05:51.123Z,35.00
2022-08-03T17:08:26.831Z,34.90
2022-08-03T17:10:54.634Z,34.60
2022-08-03T17:13:22.489Z,34.50
2022-08-03T17:15:57.651Z,34.50
2022-08-03T17:18:25.491Z,34.80
2022-08-03T17:20:52.403Z,35.70
2022-08-03T17:23:39.110Z,36.60
2022-08-03T17:26:12.523Z,37.50
2022-08-03T17:28:50.106Z,38.50
2022-08-03T17:31:31.380Z,38.60
2022-08-03T17:34:00.479Z,38.50
2022-08-03T17:36:47.523Z,38.00
2022-08-03T17:39:17.980Z,36.60
2022-08-03T17:41:49.202Z,35.10
2022-08-03T17:44:30.159Z,34.30
2022-08-03T17:47:01.376Z,33.80
2022-08-03T17:49:28.252Z,33.30
2022-08-03T17:52:06.147Z,32.90
2022-08-03T17:55:54.862Z,32.60
2022-08-03T17:58:02.004Z,32.30
2022-08-03T18:00:44.809Z,32.30
2022-08-03T18:03:20.946Z,32.10
2022-08-03T18:06:11.195Z,32.00
2022-08-03T18:08:46.832Z,31.90
2022-08-03T18:11:19.873Z,31.80
2022-08-03T18:14:16.697Z,31.80
2022-08-03T18:16:44.295Z,31.70
2022-08-03T18:19:13.484Z,31.70
2022-08-03T18:22:02.966Z,31.60
2022-08-03T18:24:28.869Z,31.60
2022-08-03T18:26:56.835Z,31.40
2022-08-03T18:29:23.973Z,31.30
2022-08-03T18:32:02.228Z,31.20
2022-08-03T18:34:32.943Z,30.90
2022-08-03T18:37:00.755Z,30.70
2022-08-03T18:39:31.290Z,30.70
2022-08-03T18:41:58.700Z,30.50
2022-08-03T18:44:53.181Z,30.30
2022-08-03T18:47:50.498Z,29.90
2022-08-03T18:50:21.869Z,30.00
2022-08-03T18:52:56.760Z,29.60
2022-08-03T18:55:33.594Z,29.40
2022-08-03T18:58:15.982Z,29.30
2022-08-03T19:01:04.198Z,29.00
2022-08-03T19:03:42.847Z,28.60
2022-08-03T19:06:14.641Z,28.40
2022-08-03T19:09:01.478Z,28.40
2022-08-03T19:12:13.927Z,28.20
2022-08-03T19:14:28.651Z,28.20
2022-08-03T19:16:57.094Z,28.10
2022-08-03T19:19:24.695Z,28.10
2022-08-03T19:21:51.478Z,28.00
2022-08-03T19:24:19.131Z,28.00
2022-08-03T19:26:48.558Z,27.80
2022-08-03T19:29:19.144Z,27.60
2022-08-03T19:31:59.518Z,27.50
2022-08-03T19:34:35.922Z,27.30
2022-08-03T19:37:04.831Z,27.20
2022-08-03T19:39:33.608Z,27.20
2022-08-03T19:42:08.082Z,27.00
2022-08-03T19:44:37.615Z,27.00
2022-08-03T19:47:11.860Z,27.10
2022-08-03T19:50:04.683Z,27.20
2022-08-03T19:52:32.079Z,27.20
2022-08-03T19:55:00.542Z,27.20
2022-08-03T19:57:28.006Z,27.20
2022-08-03T19:59:55.494Z,27.00
2022-08-03T20:02:26.278Z,26.70
2022-08-03T20:04:54.223Z,26.50
2022-08-03T20:07:22.867Z,26.20
2022-08-03T20:09:54.552Z,26.30
2022-08-03T20:12:27.412Z,26.20
2022-08-03T20:14:56.349Z,26.30
2022-08-03T20:17:23.133Z,26.30
2022-08-03T20:20:09.857Z,26.20
2022-08-03T20:22:36.811Z,26.20
2022-08-03T20:25:09.271Z,26.20
2022-08-03T20:28:08.161Z,26.30
2022-08-03T20:30:33.271Z,26.40
2022-08-03T20:33:00.068Z,26.20
2022-08-03T20:35:27.096Z,26.20
2022-08-03T20:37:54.463Z,26.10
2022-08-03T20:40:22.165Z,26.00
2022-08-03T20:42:55.254Z,25.80
2022-08-03T20:45:58.975Z,25.60
2022-08-03T20:48:09.734Z,25.50
2022-08-03T20:50:37.859Z,25.40
2022-08-03T20:53:06.018Z,25.30
2022-08-03T20:55:47.454Z,25.40
2022-08-03T20:58:20.158Z,25.30
2022-08-03T21:00:51.582Z,25.30
2022-08-03T21:03:18.849Z,25.40
2022-08-03T21:05:47.805Z,25.40
2022-08-03T21:08:14.927Z,25.20
2022-08-03T21:10:42.818Z,25.30
2022-08-03T21:13:23.864Z,25.10
2022-08-03T21:16:01.332Z,25.10
2022-08-03T21:18:58.808Z,24.80
2022-08-03T21:21:26.242Z,24.80
2022-08-03T21:23:53.417Z,24.90
2022-08-03T21:26:20.670Z,24.80
2022-08-03T21:28:50.415Z,24.60
2022-08-03T21:31:22.372Z,24.70
2022-08-03T21:33:56.308Z,24.80
2022-08-03T21:36:23.585Z,24.60
2022-08-03T21:38:56.340Z,24.30
2022-08-03T21:41:24.386Z,24.30
2022-08-03T21:43:51.096Z,24.20
2022-08-03T21:46:18.552Z,24.20
2022-08-03T21:48:45.325Z,24.30
2022-08-03T21:51:12.321Z,24.20
2022-08-03T21:54:03.326Z,24.30
2022-08-03T21:56:26.094Z,24.40
2022-08-03T21:58:54.452Z,24.40
2022-08-03T22:01:24.620Z,24.40
2022-08-03T22:03:53.818Z,24.30
2022-08-03T22:06:27.011Z,24.20
2022-08-03T22:08:54.390Z,24.10
2022-08-03T22:11:21.252Z,24.10
2022-08-03T22:13:47.946Z,24.00
2022-08-03T22:16:14.797Z,23.90
2022-08-03T22:18:43.782Z,23.80
2022-08-03T22:21:11.725Z,23.70
2022-08-03T22:23:42.554Z,23.80
2022-08-03T22:26:10.888Z,23.70
2022-08-03T22:28:37.591Z,23.70
2022-08-03T22:31:30.694Z,23.50
2022-08-03T22:33:51.589Z,23.40
2022-08-03T22:36:18.738Z,23.40
2022-08-03T22:38:48.563Z,23.40
2022-08-03T22:41:15.781Z,23.40
2022-08-03T22:43:42.544Z,23.30
2022-08-03T22:46:14.389Z,23.20
2022-08-03T22:48:43.705Z,23.30
2022-08-03T22:51:10.496Z,23.30
2022-08-03T22:53:37.280Z,23.20
2022-08-03T22:56:04.151Z,23.30
2022-08-03T22:58:30.867Z,23.30
2022-08-03T23:00:58.397Z,23.20
2022-08-03T23:04:00.341Z,23.20
2022-08-03T23:06:12.827Z,23.40
2022-08-03T23:08:39.532Z,23.30
2022-08-03T23:11:08.567Z,23.20
2022-08-03T23:13:35.889Z,23.00
2022-08-03T23:16:04.161Z,23.10
2022-08-03T23:18:36.765Z,22.80
2022-08-03T23:21:09.228Z,22.80
2022-08-03T23:23:44.290Z,22.80
2022-08-03T23:26:12.334Z,22.70
2022-08-03T23:28:39.033Z,22.60
2022-08-03T23:31:05.742Z,22.70
2022-08-03T23:33:32.444Z,22.60
2022-08-03T23:36:28.420Z,22.70
2022-08-03T23:38:45.892Z,22.80
2022-08-03T23:41:12.670Z,22.60
2022-08-03T23:43:52.329Z,22.70
2022-08-03T23:46:21.515Z,22.60
2022-08-03T23:48:48.321Z,22.70
2022-08-03T23:51:33.461Z,22.90
2022-08-03T23:54:03.688Z,22.70
2022-08-03T23:56:43.588Z,22.70
2022-08-03T23:59:13.395Z,22.60
